METAR / TAF

Die METAR- und TAF-Liste ist aus technischen Gründen (Verfügbarkeit, Update-Zyklen) nicht für ein Meteo-Briefing gedacht. Benutzen Sie stattdessen skybriefing der Skyguide  oder das TAMSI (MeteoSchweiz-eigene Meteo Selfbriefing-Plattform für Firmen aus der Aviatik; Anfragen über das

Kontaktformular

METAR Schweiz

METAR     LSZH 232120Z 04008KT 360V080 9999 OVC018 M02/M06 Q1013
               NOSIG=
METAR     LSZH 232150Z 05008KT 6000 OVC020 M02/M06 Q1013 NOSIG=
METAR     LSGG 232120Z 02007KT 340V060 7000 OVC024 M01/M05 Q1011
               NOSIG=
METAR     LSGG 232150Z 02008KT 7000 OVC024 M01/M05 Q1011 NOSIG=
METAR     LFSB 232130Z 11009KT 9999 BKN026 M00/M06 Q1013 NOSIG=
METAR     LSZB 232120Z AUTO 05005KT 340V110 6000 BKN018 BKN023
               M02/M05 Q1011=
METAR     LSZB 232150Z AUTO 03004KT 310V110 6000 SCT018 BKN023
               M02/M05 Q1010=
METAR     LSZA 232120Z AUTO 23004KT 190V260 5000 BKN009 04/02 Q1009=
METAR     LSZA 232150Z AUTO 22004KT 5000 BKN010 04/02 Q1009=
METAR     LSZG 232120Z AUTO 05016KT 9000 OVC020 M02/M05 Q1012=
METAR     LSZG 232150Z AUTO 06015KT 9000 OVC020 M02/M05 Q1012=
METAR     LSZR 232120Z AUTO 05009KT 010V080 8000 OVC022 M01/M05
               Q1013=
METAR     LSZR 232150Z AUTO 05008KT 8000 OVC026 M01/M05 Q1012=
METAR     LSGS 232120Z AUTO 00000KT 5000 NCD M01/M04 Q1010=
METAR     LSGS 232150Z AUTO VRB02KT 5000 NCD M01/M04 Q1010=
METAR     LSGC 232120Z AUTO 07009KT 050V120 4000 BR OVC006 M06/M07
               Q1007=
METAR     LSGC 232150Z AUTO 07009KT 040V110 4200 BR BKN007 M06/M07
               Q1007=
METAR     LSZC 232120Z AUTO 30005KT 240V350 6000 OVC018 M01/M05
               Q1012=
METAR     LSZC 232150Z AUTO 23005KT 210V270 6000 BKN018 M01/M05
               Q1012=
METAR     LSZL 232120Z NIL=
METAR     LSZL 232150Z AUTO 30003KT 240V340 9000NDV SCT017 SCT022
               05/02 Q1009 RMK=
METAR     LSZS 232120Z AUTO 06006KT 360V120 9999 BKN060 M06/M09
               Q1006=
METAR     LSZS 232150Z AUTO 36011KT 9999 OVC060 M06/M08 Q1006=
METAR     LSMA 232120Z NIL=
METAR     LSMA 232150Z AUTO 07005KT 050V110 6000NDV OVC019 M01/M05
               Q1012 RMK=
METAR     LSMD 232120Z NIL=
METAR     LSMD 232150Z AUTO 08004KT 050V120 8000NDV OVC019 M02/M05
               Q1013 RMK=
METAR     LSME 232120Z NIL=
METAR     LSME 232150Z AUTO 04008KT 6000NDV OVC023 M01/M05 Q1012
               RMK=
METAR     LSMM 232120Z NIL=
METAR     LSMM 232150Z AUTO 06008KT 020V120 7000NDV OVC021 M02/M05
               Q1010 RMK=
METAR     LSMP 232120Z NIL=
METAR     LSMP 232150Z AUTO 05010KT 010V070 6000NDV BKN019 M02/M05
               Q1011 RMK=
METAR     LSMS 232120Z AUTO 00000KT 5000 NCD M01/M04 Q1010=
METAR     LSMS 232150Z AUTO VRB02KT 5000 NCD M01/M04 Q1010=
Aktualisiert am Freitag, 23. Februar 2018, 23:12 Uhr

TAF Schweiz

TAF     LSZH 232025Z 2321/2503 05010KT 7000 SCT015 OVC018
             TX01/2415Z TNM03/2406Z PROB40 TEMPO 2321/2503 4500
             TEMPO 2321/2407 4000 BR BKN012 TEMPO 2421/2503 4000
             BR BKN012=
TAF     LSGG 232025Z 2321/2503 03015KT 7000 BKN020 TX02/2415Z
             TNM01/2406Z=
TAF     LFSB 231700Z 2318/2418 10007KT 9999 BKN030 BECMG 2321/2323
             35004KT PROB40 TEMPO 2403/2409 BKN005 BECMG 2412/2415
             10010KT CAVOK=
TAF AAB LSGS 232001Z 2320/2324 CNL=
TAF     LSGS 231425Z 2315/2324 26006KT 9000 FEW070 SCT140 BECMG
             2317/2319 VRB03KT=
TAF AAF LSZA 232054Z 2320/2324 CNL=
TAF     LSZA 231425Z 2315/2324 VRB03KT 8000 BR SCT010 BKN070 PROB30
             TEMPO 2315/2324 4500 -RA BKN012=
TAF AAC LSZB 232054Z 2320/2324 CNL=
TAF     LSZB 231425Z 2315/2324 05006KT 7000 BKN019 PROB40 TEMPO
             2315/2324 4500 -SN BKN014=
TAF AAD LSZG 232054Z 2320/2324 CNL=
TAF     LSZG 231425Z 2315/2324 08013KT 9000 OVC022 PROB40 TEMPO
             2315/2324 06015G25KT -SN PROB30 TEMPO 2319/2324 4000
             BR BKN012=
TAF     LSZL 231725Z 2318/2403 VRB03KT 7000 SCT110 PROB40 TEMPO
             2318/2403 4000 BR PROB30 TEMPO 2321/2403 -RA BKN012=
TAF AAD LSZR 232054Z 2320/2324 CNL=
TAF     LSZR 231425Z 2315/2324 05009KT 8000 OVC025 PROB40 TEMPO
             2315/2324 4500 -SN BKN012=
TAF AAA LSGC 232001Z 2320/2324 CNL=
TAF     LSGC 231425Z 2315/2324 05012KT 4500 BR BKN010 PROB40 TEMPO
             2315/2321 3000 -SN OVC004=
TAF AAE LSZC 232054Z 2320/2324 CNL=
TAF     LSZC 231425Z 2315/2324 VRB03KT 8000 OVC021 PROB40 TEMPO
             2315/2324 -SN PROB40 TEMPO 2319/2324 4000 BR BKN012=
TAF CCA LSZS 231425Z 2315/2324 02011KT 9999 FEW070 TX00/2315Z
             PROB30 TEMPO 2315/2320 02015G25KT=
TAF AAE LSZS 232054Z 2320/2324 CNL=
TAF     LSMA 231625Z 2317/2423 04010KT 7000 OVC020 PROB40 TEMPO
             2317/2423 -SN BKN012 PROB40 TEMPO 2320/2410 4000 BR
             BKN012 PROB40 TEMPO 2417/2423 4000 BR BKN012=
TAF     LSMD 231625Z 2317/2423 08010KT 7000 SCT015 OVC018 PROB40
             TEMPO 2317/2423 4500 TEMPO 2318/2407 4000 BR BKN012
             TEMPO 2418/2423 4000 BR BKN012=
TAF     LSME 231625Z 2317/2423 05010KT 7000 OVC020 PROB40 TEMPO
             2317/2423 -SN BKN012 PROB40 TEMPO 2320/2410 4000 BR
             BKN012 PROB40 TEMPO 2417/2423 4000 BR BKN012=
TAF     LSMM 231625Z 2317/2423 06010KT 7000 OVC025 PROB30 TEMPO
             2317/2423 3000 -SN BKN014 PROB30 TEMPO 2318/2406 4500
             BR BKN014 PROB30 TEMPO 2418/2423 4500 BR BKN014=
TAF     LSMP 231625Z 2317/2423 03013KT 7000 BKN020=
Aktualisiert am Freitag, 23. Februar 2018, 23:03 Uhr